sensor_id;sensor_type;location;lat;lon;timestamp;P1;durP1;ratioP1;P2;durP2;ratioP2
7759;SDS011;3924;48.830;9.262;2022-08-19T00:01:22;7.13;;;6.43;;
7759;SDS011;3924;48.830;9.262;2022-08-19T00:03:58;8.30;;;7.50;;
7759;SDS011;3924;48.830;9.262;2022-08-19T00:06:26;9.43;;;7.70;;
7759;SDS011;3924;48.830;9.262;2022-08-19T00:08:54;8.87;;;7.30;;
7759;SDS011;3924;48.830;9.262;2022-08-19T00:11:22;9.63;;;7.30;;
7759;SDS011;3924;48.830;9.262;2022-08-19T00:13:51;8.27;;;7.30;;
7759;SDS011;3924;48.830;9.262;2022-08-19T00:16:18;9.47;;;7.13;;
7759;SDS011;3924;48.830;9.262;2022-08-19T00:18:51;7.43;;;6.73;;
7759;SDS011;3924;48.830;9.262;2022-08-19T00:21:18;8.53;;;6.67;;
7759;SDS011;3924;48.830;9.262;2022-08-19T00:23:44;11.20;;;7.57;;
7759;SDS011;3924;48.830;9.262;2022-08-19T00:26:10;9.10;;;7.67;;
7759;SDS011;3924;48.830;9.262;2022-08-19T00:28:37;8.63;;;7.57;;
7759;SDS011;3924;48.830;9.262;2022-08-19T00:31:05;8.97;;;7.70;;
7759;SDS011;3924;48.830;9.262;2022-08-19T00:33:33;10.40;;;7.90;;
7759;SDS011;3924;48.830;9.262;2022-08-19T00:36:00;10.97;;;7.77;;
7759;SDS011;3924;48.830;9.262;2022-08-19T00:38:30;7.83;;;7.03;;
7759;SDS011;3924;48.830;9.262;2022-08-19T00:41:03;8.30;;;7.23;;
7759;SDS011;3924;48.830;9.262;2022-08-19T00:43:33;8.17;;;7.30;;
7759;SDS011;3924;48.830;9.262;2022-08-19T00:45:59;9.87;;;7.40;;
7759;SDS011;3924;48.830;9.262;2022-08-19T00:48:27;8.67;;;7.17;;
7759;SDS011;3924;48.830;9.262;2022-08-19T00:50:54;6.80;;;5.93;;
7759;SDS011;3924;48.830;9.262;2022-08-19T00:53:22;7.63;;;6.83;;
7759;SDS011;3924;48.830;9.262;2022-08-19T00:55:52;8.70;;;7.60;;
7759;SDS011;3924;48.830;9.262;2022-08-19T00:58:22;7.20;;;5.93;;
7759;SDS011;3924;48.830;9.262;2022-08-19T01:00:53;10.13;;;7.70;;
7759;SDS011;3924;48.830;9.262;2022-08-19T01:03:20;9.13;;;8.03;;
7759;SDS011;3924;48.830;9.262;2022-08-19T01:05:48;8.30;;;7.50;;
7759;SDS011;3924;48.830;9.262;2022-08-19T01:08:17;7.97;;;7.10;;
7759;SDS011;3924;48.830;9.262;2022-08-19T01:10:46;9.07;;;6.97;;
7759;SDS011;3924;48.830;9.262;2022-08-19T01:13:16;9.40;;;7.60;;
7759;SDS011;3924;48.830;9.262;2022-08-19T01:15:46;8.97;;;7.07;;
7759;SDS011;3924;48.830;9.262;2022-08-19T01:18:16;10.57;;;6.60;;
7759;SDS011;3924;48.830;9.262;2022-08-19T01:20:44;8.27;;;7.47;;
7759;SDS011;3924;48.830;9.262;2022-08-19T01:23:11;8.57;;;7.30;;
7759;SDS011;3924;48.830;9.262;2022-08-19T01:25:49;8.80;;;7.07;;
7759;SDS011;3924;48.830;9.262;2022-08-19T01:28:19;10.63;;;7.70;;
7759;SDS011;3924;48.830;9.262;2022-08-19T01:31:06;9.17;;;7.77;;
7759;SDS011;3924;48.830;9.262;2022-08-19T01:33:34;10.63;;;7.30;;
7759;SDS011;3924;48.830;9.262;2022-08-19T01:36:10;10.33;;;8.10;;
7759;SDS011;3924;48.830;9.262;2022-08-19T01:38:39;11.10;;;8.20;;
7759;SDS011;3924;48.830;9.262;2022-08-19T01:41:10;10.07;;;6.97;;
7759;SDS011;3924;48.830;9.262;2022-08-19T01:43:37;8.27;;;7.37;;
7759;SDS011;3924;48.830;9.262;2022-08-19T01:46:24;6.13;;;5.53;;
7759;SDS011;3924;48.830;9.262;2022-08-19T01:48:50;10.90;;;8.13;;
7759;SDS011;3924;48.830;9.262;2022-08-19T01:51:17;8.60;;;7.00;;
7759;SDS011;3924;48.830;9.262;2022-08-19T01:53:46;10.20;;;7.30;;
7759;SDS011;3924;48.830;9.262;2022-08-19T01:56:14;9.03;;;7.63;;
7759;SDS011;3924;48.830;9.262;2022-08-19T01:58:41;9.53;;;6.80;;
7759;SDS011;3924;48.830;9.262;2022-08-19T02:01:13;11.57;;;8.70;;
7759;SDS011;3924;48.830;9.262;2022-08-19T02:03:40;12.33;;;8.20;;
7759;SDS011;3924;48.830;9.262;2022-08-19T02:06:06;9.00;;;7.63;;
7759;SDS011;3924;48.830;9.262;2022-08-19T02:08:34;8.07;;;7.20;;
7759;SDS011;3924;48.830;9.262;2022-08-19T02:11:03;10.47;;;7.77;;
7759;SDS011;3924;48.830;9.262;2022-08-19T02:13:30;9.67;;;7.87;;
7759;SDS011;3924;48.830;9.262;2022-08-19T02:15:56;8.63;;;6.47;;
7759;SDS011;3924;48.830;9.262;2022-08-19T02:18:25;11.10;;;8.70;;
7759;SDS011;3924;48.830;9.262;2022-08-19T02:20:53;18.63;;;9.37;;
7759;SDS011;3924;48.830;9.262;2022-08-19T02:23:19;10.13;;;8.60;;
7759;SDS011;3924;48.830;9.262;2022-08-19T02:25:47;9.10;;;7.77;;
7759;SDS011;3924;48.830;9.262;2022-08-19T02:28:14;11.00;;;9.17;;
7759;SDS011;3924;48.830;9.262;2022-08-19T02:30:44;9.77;;;8.10;;
7759;SDS011;3924;48.830;9.262;2022-08-19T02:33:11;7.97;;;7.17;;
7759;SDS011;3924;48.830;9.262;2022-08-19T02:35:40;8.83;;;7.43;;
7759;SDS011;3924;48.830;9.262;2022-08-19T02:38:08;9.17;;;7.83;;
7759;SDS011;3924;48.830;9.262;2022-08-19T02:40:55;11.10;;;8.93;;
7759;SDS011;3924;48.830;9.262;2022-08-19T02:43:27;8.30;;;7.13;;
7759;SDS011;3924;48.830;9.262;2022-08-19T02:45:59;10.60;;;8.83;;
7759;SDS011;3924;48.830;9.262;2022-08-19T02:48:26;10.83;;;9.00;;
7759;SDS011;3924;48.830;9.262;2022-08-19T02:50:52;9.83;;;7.40;;
7759;SDS011;3924;48.830;9.262;2022-08-19T02:53:23;9.50;;;7.50;;
7759;SDS011;3924;48.830;9.262;2022-08-19T02:55:52;12.83;;;10.07;;
7759;SDS011;3924;48.830;9.262;2022-08-19T02:58:20;8.87;;;7.93;;
7759;SDS011;3924;48.830;9.262;2022-08-19T03:00:49;8.80;;;7.77;;
7759;SDS011;3924;48.830;9.262;2022-08-19T03:03:18;11.13;;;9.27;;
7759;SDS011;3924;48.830;9.262;2022-08-19T03:05:45;14.20;;;11.13;;
7759;SDS011;3924;48.830;9.262;2022-08-19T03:08:22;8.43;;;7.53;;
7759;SDS011;3924;48.830;9.262;2022-08-19T03:10:50;12.33;;;9.63;;
7759;SDS011;3924;48.830;9.262;2022-08-19T03:13:17;11.93;;;10.40;;
7759;SDS011;3924;48.830;9.262;2022-08-19T03:15:45;10.93;;;9.27;;
7759;SDS011;3924;48.830;9.262;2022-08-19T03:18:13;13.63;;;10.30;;
7759;SDS011;3924;48.830;9.262;2022-08-19T03:20:44;14.57;;;11.10;;
7759;SDS011;3924;48.830;9.262;2022-08-19T03:23:12;11.23;;;8.53;;
7759;SDS011;3924;48.830;9.262;2022-08-19T03:25:40;11.57;;;9.17;;
7759;SDS011;3924;48.830;9.262;2022-08-19T03:28:09;13.13;;;9.27;;
7759;SDS011;3924;48.830;9.262;2022-08-19T03:30:38;10.73;;;9.07;;
7759;SDS011;3924;48.830;9.262;2022-08-19T03:33:09;14.37;;;10.90;;
7759;SDS011;3924;48.830;9.262;2022-08-19T03:35:43;12.77;;;10.07;;
7759;SDS011;3924;48.830;9.262;2022-08-19T03:38:11;11.87;;;9.77;;
7759;SDS011;3924;48.830;9.262;2022-08-19T03:40:37;11.23;;;9.53;;
7759;SDS011;3924;48.830;9.262;2022-08-19T03:43:03;13.87;;;10.70;;
7759;SDS011;3924;48.830;9.262;2022-08-19T03:45:31;14.37;;;11.57;;
7759;SDS011;3924;48.830;9.262;2022-08-19T03:47:57;10.83;;;8.20;;
7759;SDS011;3924;48.830;9.262;2022-08-19T03:50:24;13.03;;;10.47;;
7759;SDS011;3924;48.830;9.262;2022-08-19T03:52:51;14.63;;;11.67;;
7759;SDS011;3924;48.830;9.262;2022-08-19T03:55:19;10.20;;;8.17;;
7759;SDS011;3924;48.830;9.262;2022-08-19T03:57:45;13.43;;;11.70;;
7759;SDS011;3924;48.830;9.262;2022-08-19T04:00:13;11.20;;;8.93;;
7759;SDS011;3924;48.830;9.262;2022-08-19T04:02:41;14.23;;;11.70;;
7759;SDS011;3924;48.830;9.262;2022-08-19T04:05:26;12.53;;;9.67;;
7759;SDS011;3924;48.830;9.262;2022-08-19T04:07:54;14.07;;;10.57;;
7759;SDS011;3924;48.830;9.262;2022-08-19T04:10:25;12.97;;;10.17;;
7759;SDS011;3924;48.830;9.262;2022-08-19T04:12:53;14.77;;;11.60;;
7759;SDS011;3924;48.830;9.262;2022-08-19T04:15:20;13.57;;;10.47;;
7759;SDS011;3924;48.830;9.262;2022-08-19T04:17:46;14.90;;;10.73;;
7759;SDS011;3924;48.830;9.262;2022-08-19T04:20:13;17.70;;;11.20;;
7759;SDS011;3924;48.830;9.262;2022-08-19T04:22:40;15.50;;;11.60;;
7759;SDS011;3924;48.830;9.262;2022-08-19T04:25:06;13.87;;;10.03;;
7759;SDS011;3924;48.830;9.262;2022-08-19T04:27:33;11.67;;;9.70;;
7759;SDS011;3924;48.830;9.262;2022-08-19T04:30:00;11.97;;;9.87;;
7759;SDS011;3924;48.830;9.262;2022-08-19T04:32:26;10.30;;;8.47;;
7759;SDS011;3924;48.830;9.262;2022-08-19T04:34:53;16.53;;;11.10;;
7759;SDS011;3924;48.830;9.262;2022-08-19T04:37:42;8.83;;;7.90;;
7759;SDS011;3924;48.830;9.262;2022-08-19T04:40:09;10.60;;;8.60;;
7759;SDS011;3924;48.830;9.262;2022-08-19T04:42:54;14.33;;;11.40;;
7759;SDS011;3924;48.830;9.262;2022-08-19T04:45:21;13.77;;;10.90;;
7759;SDS011;3924;48.830;9.262;2022-08-19T04:47:48;15.50;;;10.83;;
7759;SDS011;3924;48.830;9.262;2022-08-19T04:50:35;12.13;;;9.37;;
7759;SDS011;3924;48.830;9.262;2022-08-19T04:53:02;10.30;;;9.27;;
7759;SDS011;3924;48.830;9.262;2022-08-19T04:55:29;14.33;;;10.97;;
7759;SDS011;3924;48.830;9.262;2022-08-19T04:57:55;13.60;;;10.47;;
7759;SDS011;3924;48.830;9.262;2022-08-19T05:00:22;16.70;;;12.63;;
7759;SDS011;3924;48.830;9.262;2022-08-19T05:02:49;10.03;;;8.20;;
7759;SDS011;3924;48.830;9.262;2022-08-19T05:05:15;14.77;;;11.33;;
7759;SDS011;3924;48.830;9.262;2022-08-19T05:07:42;16.73;;;12.13;;
7759;SDS011;3924;48.830;9.262;2022-08-19T05:10:08;16.20;;;10.97;;
7759;SDS011;3924;48.830;9.262;2022-08-19T05:12:35;14.13;;;10.07;;
7759;SDS011;3924;48.830;9.262;2022-08-19T05:15:03;12.53;;;8.83;;
7759;SDS011;3924;48.830;9.262;2022-08-19T05:17:31;9.93;;;8.17;;
7759;SDS011;3924;48.830;9.262;2022-08-19T05:20:04;12.37;;;10.73;;
7759;SDS011;3924;48.830;9.262;2022-08-19T05:22:51;14.07;;;9.80;;
7759;SDS011;3924;48.830;9.262;2022-08-19T05:25:19;10.63;;;8.00;;
7759;SDS011;3924;48.830;9.262;2022-08-19T05:27:47;14.30;;;10.67;;
7759;SDS011;3924;48.830;9.262;2022-08-19T05:30:14;15.87;;;10.83;;
7759;SDS011;3924;48.830;9.262;2022-08-19T05:32:41;15.43;;;11.60;;
7759;SDS011;3924;48.830;9.262;2022-08-19T05:35:08;13.70;;;10.60;;
7759;SDS011;3924;48.830;9.262;2022-08-19T05:37:35;10.57;;;9.03;;
7759;SDS011;3924;48.830;9.262;2022-08-19T05:40:02;12.13;;;9.93;;
7759;SDS011;3924;48.830;9.262;2022-08-19T05:42:30;16.53;;;11.80;;
7759;SDS011;3924;48.830;9.262;2022-08-19T05:44:56;14.63;;;10.93;;
7759;SDS011;3924;48.830;9.262;2022-08-19T05:47:23;17.50;;;11.40;;
7759;SDS011;3924;48.830;9.262;2022-08-19T05:49:49;15.13;;;11.53;;
7759;SDS011;3924;48.830;9.262;2022-08-19T05:52:16;16.00;;;12.63;;
7759;SDS011;3924;48.830;9.262;2022-08-19T05:54:51;11.27;;;9.27;;
7759;SDS011;3924;48.830;9.262;2022-08-19T05:57:21;9.43;;;8.07;;
7759;SDS011;3924;48.830;9.262;2022-08-19T05:59:47;18.73;;;12.17;;
7759;SDS011;3924;48.830;9.262;2022-08-19T06:02:23;13.90;;;10.07;;
7759;SDS011;3924;48.830;9.262;2022-08-19T06:04:51;10.27;;;9.00;;
7759;SDS011;3924;48.830;9.262;2022-08-19T06:07:17;13.03;;;11.03;;
7759;SDS011;3924;48.830;9.262;2022-08-19T06:09:43;16.43;;;11.67;;
7759;SDS011;3924;48.830;9.262;2022-08-19T06:12:25;10.77;;;9.60;;
7759;SDS011;3924;48.830;9.262;2022-08-19T06:14:56;10.80;;;8.90;;
7759;SDS011;3924;48.830;9.262;2022-08-19T06:17:27;12.03;;;10.00;;
7759;SDS011;3924;48.830;9.262;2022-08-19T06:19:56;18.97;;;12.13;;
7759;SDS011;3924;48.830;9.262;2022-08-19T06:22:22;16.97;;;12.10;;
7759;SDS011;3924;48.830;9.262;2022-08-19T06:24:49;16.97;;;13.17;;
7759;SDS011;3924;48.830;9.262;2022-08-19T06:27:18;13.40;;;11.00;;
7759;SDS011;3924;48.830;9.262;2022-08-19T06:29:46;16.33;;;12.93;;
7759;SDS011;3924;48.830;9.262;2022-08-19T06:32:14;15.27;;;11.63;;
7759;SDS011;3924;48.830;9.262;2022-08-19T06:34:42;18.40;;;12.33;;
7759;SDS011;3924;48.830;9.262;2022-08-19T06:37:08;16.63;;;13.00;;
7759;SDS011;3924;48.830;9.262;2022-08-19T06:39:36;16.70;;;12.97;;
7759;SDS011;3924;48.830;9.262;2022-08-19T06:42:05;12.07;;;8.37;;
7759;SDS011;3924;48.830;9.262;2022-08-19T06:44:36;9.47;;;8.40;;
7759;SDS011;3924;48.830;9.262;2022-08-19T06:47:09;10.80;;;8.57;;
7759;SDS011;3924;48.830;9.262;2022-08-19T06:49:48;12.87;;;10.60;;
7759;SDS011;3924;48.830;9.262;2022-08-19T06:52:15;8.73;;;7.37;;
7759;SDS011;3924;48.830;9.262;2022-08-19T06:54:42;14.33;;;11.03;;
7759;SDS011;3924;48.830;9.262;2022-08-19T06:57:22;14.30;;;11.20;;
7759;SDS011;3924;48.830;9.262;2022-08-19T06:59:49;14.50;;;11.47;;
7759;SDS011;3924;48.830;9.262;2022-08-19T07:02:16;15.13;;;11.60;;
7759;SDS011;3924;48.830;9.262;2022-08-19T07:04:43;13.23;;;10.40;;
7759;SDS011;3924;48.830;9.262;2022-08-19T07:07:11;16.60;;;12.90;;
7759;SDS011;3924;48.830;9.262;2022-08-19T07:09:46;9.30;;;8.30;;
7759;SDS011;3924;48.830;9.262;2022-08-19T07:12:23;12.60;;;9.93;;
7759;SDS011;3924;48.830;9.262;2022-08-19T07:14:51;11.80;;;10.43;;
7759;SDS011;3924;48.830;9.262;2022-08-19T07:17:19;13.87;;;11.63;;
7759;SDS011;3924;48.830;9.262;2022-08-19T07:19:46;13.07;;;10.23;;
7759;SDS011;3924;48.830;9.262;2022-08-19T07:22:14;15.23;;;11.77;;
7759;SDS011;3924;48.830;9.262;2022-08-19T07:24:42;8.53;;;7.73;;
7759;SDS011;3924;48.830;9.262;2022-08-19T07:27:16;15.53;;;12.33;;
7759;SDS011;3924;48.830;9.262;2022-08-19T07:29:51;16.13;;;11.53;;
7759;SDS011;3924;48.830;9.262;2022-08-19T07:32:22;10.80;;;9.67;;
7759;SDS011;3924;48.830;9.262;2022-08-19T07:34:48;10.60;;;8.80;;
7759;SDS011;3924;48.830;9.262;2022-08-19T07:37:15;16.77;;;10.67;;
7759;SDS011;3924;48.830;9.262;2022-08-19T07:39:42;17.90;;;13.00;;
7759;SDS011;3924;48.830;9.262;2022-08-19T07:42:09;12.03;;;10.57;;
7759;SDS011;3924;48.830;9.262;2022-08-19T07:44:39;11.60;;;9.93;;
7759;SDS011;3924;48.830;9.262;2022-08-19T07:47:06;16.77;;;12.07;;
7759;SDS011;3924;48.830;9.262;2022-08-19T07:49:53;8.37;;;7.53;;
7759;SDS011;3924;48.830;9.262;2022-08-19T07:52:19;10.27;;;8.73;;
7759;SDS011;3924;48.830;9.262;2022-08-19T07:54:46;10.00;;;7.93;;
7759;SDS011;3924;48.830;9.262;2022-08-19T07:57:12;16.63;;;10.63;;
7759;SDS011;3924;48.830;9.262;2022-08-19T07:59:39;11.43;;;9.93;;
7759;SDS011;3924;48.830;9.262;2022-08-19T08:02:06;12.07;;;10.73;;
7759;SDS011;3924;48.830;9.262;2022-08-19T08:04:33;8.53;;;7.60;;
7759;SDS011;3924;48.830;9.262;2022-08-19T08:07:19;14.67;;;10.60;;
7759;SDS011;3924;48.830;9.262;2022-08-19T08:10:05;14.37;;;10.80;;
7759;SDS011;3924;48.830;9.262;2022-08-19T08:12:46;12.53;;;10.73;;
7759;SDS011;3924;48.830;9.262;2022-08-19T08:15:33;16.10;;;11.30;;
7759;SDS011;3924;48.830;9.262;2022-08-19T08:18:07;8.00;;;7.20;;
7759;SDS011;3924;48.830;9.262;2022-08-19T08:20:34;12.43;;;9.90;;
7759;SDS011;3924;48.830;9.262;2022-08-19T08:23:01;16.43;;;11.33;;
7759;SDS011;3924;48.830;9.262;2022-08-19T08:25:46;14.37;;;10.83;;
7759;SDS011;3924;48.830;9.262;2022-08-19T08:28:15;11.57;;;9.60;;
7759;SDS011;3924;48.830;9.262;2022-08-19T08:30:43;7.77;;;6.97;;
7759;SDS011;3924;48.830;9.262;2022-08-19T08:33:11;15.30;;;10.27;;
7759;SDS011;3924;48.830;9.262;2022-08-19T08:35:39;9.57;;;8.53;;
7759;SDS011;3924;48.830;9.262;2022-08-19T08:38:11;14.63;;;10.27;;
7759;SDS011;3924;48.830;9.262;2022-08-19T08:43:22;12.17;;;9.83;;
7759;SDS011;3924;48.830;9.262;2022-08-19T08:46:12;10.57;;;9.47;;
7759;SDS011;3924;48.830;9.262;2022-08-19T08:49:13;8.00;;;7.20;;
7759;SDS011;3924;48.830;9.262;2022-08-19T08:52:05;8.03;;;7.23;;
7759;SDS011;3924;48.830;9.262;2022-08-19T08:54:40;11.43;;;8.73;;
7759;SDS011;3924;48.830;9.262;2022-08-19T08:57:27;11.07;;;9.50;;
7759;SDS011;3924;48.830;9.262;2022-08-19T09:00:09;12.87;;;9.60;;
7759;SDS011;3924;48.830;9.262;2022-08-19T09:02:41;7.63;;;6.33;;
7759;SDS011;3924;48.830;9.262;2022-08-19T09:05:09;12.03;;;10.40;;
7759;SDS011;3924;48.830;9.262;2022-08-19T09:08:02;9.10;;;8.20;;
7759;SDS011;3924;48.830;9.262;2022-08-19T09:10:52;10.17;;;8.50;;
7759;SDS011;3924;48.830;9.262;2022-08-19T09:16:11;15.63;;;11.80;;
7759;SDS011;3924;48.830;9.262;2022-08-19T09:18:43;7.70;;;6.47;;
7759;SDS011;3924;48.830;9.262;2022-08-19T09:21:14;14.10;;;8.80;;
7759;SDS011;3924;48.830;9.262;2022-08-19T09:23:42;11.10;;;9.40;;
7759;SDS011;3924;48.830;9.262;2022-08-19T09:26:13;14.80;;;10.20;;
7759;SDS011;3924;48.830;9.262;2022-08-19T09:28:46;12.43;;;10.63;;
7759;SDS011;3924;48.830;9.262;2022-08-19T09:31:16;9.47;;;6.83;;
7759;SDS011;3924;48.830;9.262;2022-08-19T09:33:44;8.50;;;7.63;;
7759;SDS011;3924;48.830;9.262;2022-08-19T09:36:12;11.43;;;10.13;;
7759;SDS011;3924;48.830;9.262;2022-08-19T09:39:00;12.97;;;9.40;;
7759;SDS011;3924;48.830;9.262;2022-08-19T09:41:27;13.40;;;10.10;;
7759;SDS011;3924;48.830;9.262;2022-08-19T09:43:55;13.17;;;10.37;;
7759;SDS011;3924;48.830;9.262;2022-08-19T09:46:25;9.03;;;8.03;;
7759;SDS011;3924;48.830;9.262;2022-08-19T09:48:54;15.57;;;10.40;;
7759;SDS011;3924;48.830;9.262;2022-08-19T09:51:32;16.37;;;10.53;;
7759;SDS011;3924;48.830;9.262;2022-08-19T09:54:01;13.60;;;10.90;;
7759;SDS011;3924;48.830;9.262;2022-08-19T09:56:30;17.13;;;11.23;;
7759;SDS011;3924;48.830;9.262;2022-08-19T09:58:59;12.87;;;10.07;;
7759;SDS011;3924;48.830;9.262;2022-08-19T10:01:27;12.77;;;9.80;;
7759;SDS011;3924;48.830;9.262;2022-08-19T10:03:56;14.57;;;8.40;;
7759;SDS011;3924;48.830;9.262;2022-08-19T10:06:25;14.87;;;10.67;;
7759;SDS011;3924;48.830;9.262;2022-08-19T10:09:12;14.03;;;10.37;;
7759;SDS011;3924;48.830;9.262;2022-08-19T10:11:39;10.47;;;9.10;;
7759;SDS011;3924;48.830;9.262;2022-08-19T10:14:17;13.53;;;9.17;;
7759;SDS011;3924;48.830;9.262;2022-08-19T10:16:48;9.87;;;7.27;;
7759;SDS011;3924;48.830;9.262;2022-08-19T10:19:15;11.63;;;10.13;;
7759;SDS011;3924;48.830;9.262;2022-08-19T10:21:50;11.20;;;10.00;;
7759;SDS011;3924;48.830;9.262;2022-08-19T10:24:18;13.67;;;9.90;;
7759;SDS011;3924;48.830;9.262;2022-08-19T10:26:46;13.57;;;9.20;;
7759;SDS011;3924;48.830;9.262;2022-08-19T10:29:24;10.90;;;8.93;;
7759;SDS011;3924;48.830;9.262;2022-08-19T10:31:58;14.07;;;8.93;;
7759;SDS011;3924;48.830;9.262;2022-08-19T10:34:29;12.13;;;9.43;;
7759;SDS011;3924;48.830;9.262;2022-08-19T10:36:56;12.93;;;9.20;;
7759;SDS011;3924;48.830;9.262;2022-08-19T10:39:26;9.70;;;8.70;;
7759;SDS011;3924;48.830;9.262;2022-08-19T10:42:08;10.00;;;9.00;;
7759;SDS011;3924;48.830;9.262;2022-08-19T10:44:36;11.07;;;9.17;;
7759;SDS011;3924;48.830;9.262;2022-08-19T10:47:03;13.37;;;9.00;;
7759;SDS011;3924;48.830;9.262;2022-08-19T10:49:43;6.30;;;5.67;;
7759;SDS011;3924;48.830;9.262;2022-08-19T10:52:28;9.57;;;8.07;;
7759;SDS011;3924;48.830;9.262;2022-08-19T10:55:04;12.83;;;8.33;;
7759;SDS011;3924;48.830;9.262;2022-08-19T10:57:55;11.13;;;7.77;;
7759;SDS011;3924;48.830;9.262;2022-08-19T11:00:28;12.57;;;8.33;;
7759;SDS011;3924;48.830;9.262;2022-08-19T11:02:57;11.80;;;8.67;;
7759;SDS011;3924;48.830;9.262;2022-08-19T11:05:23;11.57;;;7.63;;
7759;SDS011;3924;48.830;9.262;2022-08-19T11:07:50;13.67;;;9.10;;
7759;SDS011;3924;48.830;9.262;2022-08-19T11:10:18;9.47;;;8.10;;
7759;SDS011;3924;48.830;9.262;2022-08-19T11:12:47;17.77;;;9.90;;
7759;SDS011;3924;48.830;9.262;2022-08-19T11:15:14;11.67;;;8.20;;
7759;SDS011;3924;48.830;9.262;2022-08-19T11:17:41;13.33;;;9.00;;
7759;SDS011;3924;48.830;9.262;2022-08-19T11:20:10;12.77;;;8.37;;
7759;SDS011;3924;48.830;9.262;2022-08-19T11:22:38;11.43;;;9.00;;
7759;SDS011;3924;48.830;9.262;2022-08-19T11:25:07;10.60;;;7.67;;
7759;SDS011;3924;48.830;9.262;2022-08-19T11:27:37;16.17;;;9.23;;
7759;SDS011;3924;48.830;9.262;2022-08-19T11:30:08;13.20;;;8.50;;
7759;SDS011;3924;48.830;9.262;2022-08-19T11:32:38;16.97;;;10.13;;
7759;SDS011;3924;48.830;9.262;2022-08-19T11:35:14;14.57;;;9.57;;
7759;SDS011;3924;48.830;9.262;2022-08-19T11:37:42;15.20;;;9.87;;
7759;SDS011;3924;48.830;9.262;2022-08-19T11:40:08;10.73;;;8.03;;
7759;SDS011;3924;48.830;9.262;2022-08-19T11:42:36;11.53;;;7.77;;
7759;SDS011;3924;48.830;9.262;2022-08-19T11:45:25;11.27;;;7.53;;
7759;SDS011;3924;48.830;9.262;2022-08-19T11:47:53;13.13;;;7.93;;
7759;SDS011;3924;48.830;9.262;2022-08-19T11:50:20;9.20;;;7.00;;
7759;SDS011;3924;48.830;9.262;2022-08-19T11:52:49;15.00;;;8.03;;
7759;SDS011;3924;48.830;9.262;2022-08-19T11:55:17;10.60;;;8.17;;
7759;SDS011;3924;48.830;9.262;2022-08-19T11:57:43;8.23;;;6.67;;
7759;SDS011;3924;48.830;9.262;2022-08-19T12:00:10;6.17;;;5.40;;
7759;SDS011;3924;48.830;9.262;2022-08-19T12:02:39;6.20;;;5.60;;
7759;SDS011;3924;48.830;9.262;2022-08-19T12:05:06;6.57;;;5.97;;
7759;SDS011;3924;48.830;9.262;2022-08-19T12:07:38;25.63;;;5.40;;
7759;SDS011;3924;48.830;9.262;2022-08-19T12:10:05;8.47;;;5.07;;
7759;SDS011;3924;48.830;9.262;2022-08-19T12:12:33;4.90;;;4.40;;
7759;SDS011;3924;48.830;9.262;2022-08-19T12:14:59;7.13;;;6.43;;
7759;SDS011;3924;48.830;9.262;2022-08-19T12:17:26;8.90;;;6.13;;
7759;SDS011;3924;48.830;9.262;2022-08-19T12:19:53;8.83;;;6.57;;
7759;SDS011;3924;48.830;9.262;2022-08-19T12:22:20;10.17;;;7.03;;
7759;SDS011;3924;48.830;9.262;2022-08-19T12:24:47;7.83;;;7.07;;
7759;SDS011;3924;48.830;9.262;2022-08-19T12:27:16;7.80;;;7.10;;
7759;SDS011;3924;48.830;9.262;2022-08-19T12:30:03;7.73;;;6.77;;
7759;SDS011;3924;48.830;9.262;2022-08-19T12:32:31;8.50;;;7.33;;
7759;SDS011;3924;48.830;9.262;2022-08-19T12:34:57;10.10;;;7.47;;
7759;SDS011;3924;48.830;9.262;2022-08-19T12:37:24;9.90;;;6.90;;
7759;SDS011;3924;48.830;9.262;2022-08-19T12:39:51;10.30;;;6.27;;
7759;SDS011;3924;48.830;9.262;2022-08-19T12:42:17;9.47;;;6.77;;
7759;SDS011;3924;48.830;9.262;2022-08-19T12:44:44;7.37;;;6.63;;
7759;SDS011;3924;48.830;9.262;2022-08-19T12:47:12;10.20;;;7.37;;
7759;SDS011;3924;48.830;9.262;2022-08-19T12:49:41;8.70;;;7.90;;
7759;SDS011;3924;48.830;9.262;2022-08-19T12:52:21;9.23;;;7.40;;
7759;SDS011;3924;48.830;9.262;2022-08-19T12:54:50;12.07;;;6.90;;
7759;SDS011;3924;48.830;9.262;2022-08-19T12:57:20;11.30;;;7.77;;
7759;SDS011;3924;48.830;9.262;2022-08-19T12:59:58;8.57;;;7.77;;
7759;SDS011;3924;48.830;9.262;2022-08-19T13:02:37;9.17;;;8.10;;
7759;SDS011;3924;48.830;9.262;2022-08-19T13:05:05;15.07;;;10.60;;
7759;SDS011;3924;48.830;9.262;2022-08-19T13:07:34;15.47;;;11.00;;
7759;SDS011;3924;48.830;9.262;2022-08-19T13:10:03;13.60;;;11.00;;
7759;SDS011;3924;48.830;9.262;2022-08-19T13:12:31;8.27;;;7.47;;
7759;SDS011;3924;48.830;9.262;2022-08-19T13:14:57;18.70;;;11.70;;
7759;SDS011;3924;48.830;9.262;2022-08-19T13:17:25;15.80;;;12.57;;
7759;SDS011;3924;48.830;9.262;2022-08-19T13:19:51;14.67;;;12.53;;
7759;SDS011;3924;48.830;9.262;2022-08-19T13:22:18;18.83;;;12.93;;
7759;SDS011;3924;48.830;9.262;2022-08-19T13:24:44;15.17;;;12.30;;
7759;SDS011;3924;48.830;9.262;2022-08-19T13:27:12;18.47;;;12.93;;
7759;SDS011;3924;48.830;9.262;2022-08-19T13:29:41;16.07;;;13.07;;
7759;SDS011;3924;48.830;9.262;2022-08-19T13:32:26;17.40;;;12.60;;
7759;SDS011;3924;48.830;9.262;2022-08-19T13:35:11;16.40;;;12.40;;
7759;SDS011;3924;48.830;9.262;2022-08-19T13:37:42;16.13;;;12.67;;
7759;SDS011;3924;48.830;9.262;2022-08-19T13:40:17;18.00;;;13.30;;
7759;SDS011;3924;48.830;9.262;2022-08-19T13:42:50;14.67;;;12.40;;
7759;SDS011;3924;48.830;9.262;2022-08-19T13:45:22;14.20;;;11.63;;
7759;SDS011;3924;48.830;9.262;2022-08-19T13:47:51;15.83;;;12.93;;
7759;SDS011;3924;48.830;9.262;2022-08-19T13:50:26;14.13;;;11.47;;
7759;SDS011;3924;48.830;9.262;2022-08-19T13:52:54;16.90;;;12.23;;
7759;SDS011;3924;48.830;9.262;2022-08-19T13:55:22;17.80;;;12.33;;
7759;SDS011;3924;48.830;9.262;2022-08-19T13:57:51;18.00;;;13.07;;
7759;SDS011;3924;48.830;9.262;2022-08-19T14:00:20;14.03;;;11.57;;
7759;SDS011;3924;48.830;9.262;2022-08-19T14:02:50;18.67;;;13.70;;
7759;SDS011;3924;48.830;9.262;2022-08-19T14:05:18;17.43;;;13.90;;
7759;SDS011;3924;48.830;9.262;2022-08-19T14:07:45;20.03;;;13.63;;
7759;SDS011;3924;48.830;9.262;2022-08-19T14:10:11;21.10;;;14.90;;
7759;SDS011;3924;48.830;9.262;2022-08-19T14:12:39;17.53;;;13.60;;
7759;SDS011;3924;48.830;9.262;2022-08-19T14:15:06;19.87;;;14.70;;
7759;SDS011;3924;48.830;9.262;2022-08-19T14:17:34;19.67;;;13.10;;
7759;SDS011;3924;48.830;9.262;2022-08-19T14:20:04;16.10;;;13.63;;
7759;SDS011;3924;48.830;9.262;2022-08-19T14:22:36;16.40;;;13.77;;
7759;SDS011;3924;48.830;9.262;2022-08-19T14:25:05;17.67;;;13.77;;
7759;SDS011;3924;48.830;9.262;2022-08-19T14:27:38;17.00;;;12.17;;
7759;SDS011;3924;48.830;9.262;2022-08-19T14:30:07;15.00;;;11.73;;
7759;SDS011;3924;48.830;9.262;2022-08-19T14:32:35;15.27;;;13.33;;
7759;SDS011;3924;48.830;9.262;2022-08-19T14:35:02;16.13;;;14.33;;
7759;SDS011;3924;48.830;9.262;2022-08-19T14:37:29;22.73;;;12.43;;
7759;SDS011;3924;48.830;9.262;2022-08-19T14:39:56;18.63;;;15.07;;
7759;SDS011;3924;48.830;9.262;2022-08-19T14:42:22;19.13;;;15.43;;
7759;SDS011;3924;48.830;9.262;2022-08-19T14:44:49;18.00;;;15.83;;
7759;SDS011;3924;48.830;9.262;2022-08-19T14:47:15;20.67;;;15.17;;
7759;SDS011;3924;48.830;9.262;2022-08-19T14:49:42;19.73;;;15.67;;
7759;SDS011;3924;48.830;9.262;2022-08-19T14:52:13;24.13;;;15.80;;
7759;SDS011;3924;48.830;9.262;2022-08-19T14:54:40;21.13;;;16.20;;
7759;SDS011;3924;48.830;9.262;2022-08-19T14:57:06;21.60;;;15.97;;
7759;SDS011;3924;48.830;9.262;2022-08-19T14:59:34;18.63;;;15.27;;
7759;SDS011;3924;48.830;9.262;2022-08-19T15:02:01;21.27;;;15.43;;
7759;SDS011;3924;48.830;9.262;2022-08-19T15:04:47;25.10;;;14.73;;
7759;SDS011;3924;48.830;9.262;2022-08-19T15:07:24;18.03;;;14.30;;
7759;SDS011;3924;48.830;9.262;2022-08-19T15:09:54;18.50;;;14.50;;
7759;SDS011;3924;48.830;9.262;2022-08-19T15:12:21;21.73;;;15.10;;
7759;SDS011;3924;48.830;9.262;2022-08-19T15:14:48;20.83;;;14.73;;
7759;SDS011;3924;48.830;9.262;2022-08-19T15:17:21;16.73;;;14.37;;
7759;SDS011;3924;48.830;9.262;2022-08-19T15:20:08;17.70;;;13.87;;
7759;SDS011;3924;48.830;9.262;2022-08-19T15:22:36;18.10;;;14.23;;
7759;SDS011;3924;48.830;9.262;2022-08-19T15:25:04;18.07;;;14.33;;